Time;durP1;ratioP1;P1;durP2;ratioP2;P2;SDS_P1;SDS_P2;PMS_P1;PMS_P2;Temp;Humidity;BMP_temperature;BMP_pressure;BME280_temperature;BME280_humidity;BME280_pressure;Samples;Min_cycle;Max_cycle;Signal;HPM_P1;HPM_P2
2022/04/05 05:00:35;;;;;;;10.50;9.20;;;5.70;97.20;;;;;;1701055;29;20598;-71
2022/04/05 05:01:25;;;;;;;9.63;8.73;;;5.70;97.20;;;;;;1701029;29;20249;-71
2022/04/05 05:02:17;;;;;;;8.43;7.73;;;5.70;97.20;;;;;;1700987;29;20238;-71
2022/04/05 05:03:08;;;;;;;8.43;7.70;;;5.70;97.20;;;;;;1700957;29;20230;-70
2022/04/05 05:04:00;;;;;;;9.60;8.70;;;5.70;97.20;;;;;;1700979;29;20210;-71
2022/04/05 05:04:51;;;;;;;8.80;8.00;;;5.70;97.20;;;;;;1700981;29;20513;-71
2022/04/05 05:05:43;;;;;;;9.30;8.40;;;5.70;97.20;;;;;;1700261;29;20208;-71
2022/04/05 05:06:34;;;;;;;8.95;8.05;;;5.70;97.20;;;;;;1700333;29;20230;-72
2022/04/05 05:07:29;;;;;;;9.00;8.23;;;5.70;97.20;;;;;;1697812;29;20219;-71
2022/04/05 05:08:19;;;;;;;9.20;8.30;;;5.70;97.20;;;;;;1700566;29;20207;-71
2022/04/05 05:09:11;;;;;;;9.07;8.10;;;5.70;97.20;;;;;;1694462;29;20279;-71
2022/04/05 05:10:02;;;;;;;8.95;8.18;;;5.70;97.20;;;;;;1694332;29;20212;-71
2022/04/05 05:10:54;;;;;;;8.53;7.53;;;5.70;97.20;;;;;;1694484;29;20259;-71
2022/04/05 05:11:45;;;;;;;8.55;7.70;;;5.70;97.20;;;;;;1694516;29;20443;-71
2022/04/05 05:12:36;;;;;;;8.80;8.07;;;5.70;97.20;;;;;;1695873;29;20210;-71
2022/04/05 05:13:28;;;;;;;8.65;7.85;;;5.70;97.20;;;;;;1700967;29;20207;-71
2022/04/05 05:14:20;;;;;;;8.85;8.05;;;5.70;97.20;;;;;;1700847;29;20578;-71
2022/04/05 05:15:15;;;;;;;9.27;8.32;;;5.70;97.20;;;;;;1700261;29;20223;-71
2022/04/05 05:16:08;;;;;;;8.88;7.97;;;5.70;97.20;;;;;;1700623;29;20294;-70
2022/04/05 05:16:58;;;;;;;8.77;7.88;;;5.70;97.20;;;;;;1700901;29;20674;-70
2022/04/05 05:17:50;;;;;;;8.53;7.73;;;5.70;97.20;;;;;;1700921;29;20966;-71
2022/04/05 05:18:42;;;;;;;10.95;8.10;;;5.70;97.20;;;;;;1700671;29;20389;-70
2022/04/05 05:19:34;;;;;;;8.60;7.82;;;5.70;97.20;;;;;;1700652;29;20773;-70
2022/04/05 05:20:24;;;;;;;8.68;7.82;;;5.70;97.20;;;;;;1701047;29;20204;-71
2022/04/05 05:21:18;;;;;;;8.30;7.50;;;5.70;97.20;;;;;;1700853;29;20659;-70
2022/04/05 05:22:09;;;;;;;8.20;7.50;;;5.70;97.20;;;;;;1700454;29;20215;-71
2022/04/05 05:23:01;;;;;;;8.67;7.87;;;5.80;97.20;;;;;;1697943;29;20201;-72
2022/04/05 05:23:52;;;;;;;8.93;8.13;;;5.70;97.20;;;;;;1700758;29;20203;-71
2022/04/05 05:24:43;;;;;;;9.30;8.40;;;5.80;97.20;;;;;;1700951;29;20282;-70
2022/04/05 05:25:34;;;;;;;8.32;7.53;;;5.80;97.20;;;;;;1699926;29;20741;-71
2022/04/05 05:26:26;;;;;;;8.67;7.60;;;5.80;97.20;;;;;;1701802;29;20748;-70
2022/04/05 05:27:17;;;;;;;8.93;8.00;;;5.80;97.20;;;;;;1700487;29;20528;-71
2022/04/05 05:28:10;;;;;;;8.43;7.72;;;5.80;97.20;;;;;;1699761;29;20203;-71
2022/04/05 05:29:01;;;;;;;8.88;8.07;;;5.80;97.20;;;;;;1700727;29;20211;-71
2022/04/05 05:29:53;;;;;;;8.67;7.80;;;5.80;97.20;;;;;;1701030;29;20702;-71
2022/04/05 05:30:44;;;;;;;9.05;8.25;;;5.80;97.20;;;;;;1697965;29;20450;-71
2022/04/05 05:31:37;;;;;;;8.27;7.40;;;5.80;97.20;;;;;;1696518;29;20256;-71
2022/04/05 05:32:28;;;;;;;7.70;7.00;;;5.80;97.20;;;;;;1696974;29;20451;-72
2022/04/05 05:33:20;;;;;;;9.10;8.20;;;5.90;97.20;;;;;;1700219;29;20199;-72
2022/04/05 05:34:10;;;;;;;8.50;7.70;;;5.90;97.20;;;;;;1694353;29;20574;-72
2022/04/05 05:35:02;;;;;;;8.33;7.53;;;5.90;97.20;;;;;;1693932;29;20204;-70
2022/04/05 05:35:53;;;;;;;9.15;8.25;;;5.90;97.20;;;;;;1700792;29;20207;-70
2022/04/05 05:36:45;;;;;;;8.97;8.07;;;5.90;97.20;;;;;;1699821;29;20211;-70
2022/04/05 05:37:35;;;;;;;8.70;7.90;;;5.90;97.20;;;;;;1699450;29;20483;-70
2022/04/05 05:38:27;;;;;;;9.73;7.10;;;5.90;97.20;;;;;;1697801;29;20203;-71
2022/04/05 05:39:18;;;;;;;10.18;7.60;;;5.90;97.20;;;;;;1700159;29;20218;-70
2022/04/05 05:40:11;;;;;;;8.07;7.37;;;5.90;97.20;;;;;;1700610;29;20217;-70
2022/04/05 05:41:01;;;;;;;8.20;7.40;;;6.00;97.20;;;;;;1700152;29;20238;-70
2022/04/05 05:41:54;;;;;;;8.87;7.57;;;6.00;97.20;;;;;;1700652;29;20689;-70
2022/04/05 05:42:51;;;;;;;9.27;7.85;;;6.00;97.20;;;;;;1700541;29;20302;-70
2022/04/05 05:43:45;;;;;;;7.93;7.15;;;6.00;97.20;;;;;;1699861;29;20206;-70
2022/04/05 05:44:36;;;;;;;8.23;7.55;;;6.00;97.20;;;;;;1700450;29;20472;-70
2022/04/05 05:45:29;;;;;;;8.30;7.50;;;6.00;97.20;;;;;;1700662;29;20207;-70
2022/04/05 05:46:20;;;;;;;8.88;7.90;;;6.00;97.20;;;;;;1700452;29;20487;-70
2022/04/05 05:47:13;;;;;;;7.87;7.17;;;6.00;97.20;;;;;;1700371;29;20211;-70
2022/04/05 05:48:04;;;;;;;8.75;7.95;;;6.00;97.20;;;;;;1700344;29;20203;-71
2022/04/05 05:48:56;;;;;;;6.90;6.40;;;6.00;97.20;;;;;;1700590;29;20203;-70
2022/04/05 05:49:47;;;;;;;8.88;7.00;;;6.00;97.20;;;;;;1696645;29;20616;-70
2022/04/05 05:50:39;;;;;;;8.23;7.43;;;6.00;97.20;;;;;;1694086;29;20568;-70
2022/04/05 05:51:30;;;;;;;7.75;7.00;;;6.00;97.20;;;;;;1694132;29;20239;-70
2022/04/05 05:52:21;;;;;;;8.03;7.33;;;6.00;97.20;;;;;;1694194;29;20204;-70
2022/04/05 05:53:12;;;;;;;8.40;7.60;;;6.00;97.20;;;;;;1694088;29;20204;-70
2022/04/05 05:54:05;;;;;;;8.10;7.30;;;6.00;97.20;;;;;;1694164;29;20206;-70
2022/04/05 05:54:56;;;;;;;8.40;7.10;;;6.00;97.20;;;;;;1694075;29;20455;-70
2022/04/05 05:55:48;;;;;;;8.63;7.50;;;6.00;97.20;;;;;;1694168;29;20212;-70
2022/04/05 05:56:39;;;;;;;8.50;7.70;;;6.00;97.20;;;;;;1694001;29;20235;-70
2022/04/05 05:57:30;;;;;;;9.40;8.40;;;6.00;97.20;;;;;;1694134;29;20691;-72
2022/04/05 05:58:21;;;;;;;8.52;7.72;;;6.00;97.20;;;;;;1693807;29;20962;-72
2022/04/05 05:59:13;;;;;;;8.07;7.37;;;6.10;97.20;;;;;;1694007;29;20631;-71
2022/04/05 06:00:06;;;;;;;8.25;7.55;;;6.10;97.20;;;;;;1694107;29;20211;-72
2022/04/05 06:00:58;;;;;;;8.23;7.45;;;6.10;97.20;;;;;;1694002;29;20242;-72
2022/04/05 06:01:48;;;;;;;8.80;8.00;;;6.10;97.20;;;;;;1694048;29;20208;-71
2022/04/05 06:02:42;;;;;;;8.70;7.90;;;6.10;97.20;;;;;;1694058;29;20226;-72
2022/04/05 06:03:34;;;;;;;8.20;7.40;;;6.00;97.20;;;;;;1694057;29;20243;-71
2022/04/05 06:04:25;;;;;;;8.82;7.93;;;6.00;97.20;;;;;;1694081;29;20224;-72
2022/04/05 06:05:16;;;;;;;8.80;7.90;;;6.00;97.20;;;;;;1694039;29;20207;-72
2022/04/05 06:06:07;;;;;;;8.10;7.40;;;6.00;97.20;;;;;;1693991;29;20208;-72
2022/04/05 06:06:58;;;;;;;7.70;7.00;;;6.10;97.20;;;;;;1695111;29;20204;-72
2022/04/05 06:07:50;;;;;;;8.10;7.30;;;6.00;97.20;;;;;;1694171;29;20236;-71
2022/04/05 06:08:42;;;;;;;8.50;7.70;;;6.00;97.20;;;;;;1693761;29;20210;-72
2022/04/05 06:09:32;;;;;;;8.25;7.55;;;6.10;97.20;;;;;;1698418;29;20814;-72
2022/04/05 06:10:25;;;;;;;8.03;7.23;;;6.10;97.20;;;;;;1700658;29;20221;-72
2022/04/05 06:11:16;;;;;;;8.73;7.88;;;6.00;97.20;;;;;;1697208;29;20203;-71
2022/04/05 06:12:09;;;;;;;8.90;8.10;;;6.00;97.20;;;;;;1694083;29;20207;-71
2022/04/05 06:12:59;;;;;;;8.80;8.10;;;6.00;97.20;;;;;;1694081;29;20238;-71
2022/04/05 06:13:52;;;;;;;8.23;7.37;;;6.00;97.20;;;;;;1694092;29;20236;-71
2022/04/05 06:14:43;;;;;;;8.60;7.80;;;6.00;97.20;;;;;;1694156;29;20211;-70
2022/04/05 06:15:34;;;;;;;8.13;7.43;;;6.00;97.20;;;;;;1694134;29;20218;-70
2022/04/05 06:16:25;;;;;;;8.55;7.85;;;6.00;97.20;;;;;;1693897;29;21600;-71
2022/04/05 06:17:17;;;;;;;8.50;7.80;;;6.00;97.20;;;;;;1693933;29;20222;-70
2022/04/05 06:18:10;;;;;;;8.02;7.32;;;6.00;97.20;;;;;;1693783;29;20212;-70
2022/04/05 06:19:00;;;;;;;8.60;7.80;;;6.00;97.20;;;;;;1694075;29;20644;-70
2022/04/05 06:19:52;;;;;;;8.63;7.90;;;6.00;97.20;;;;;;1693917;29;20255;-70
2022/04/05 06:20:43;;;;;;;8.20;7.40;;;6.00;97.20;;;;;;1694159;29;20204;-70
2022/04/05 06:21:34;;;;;;;8.23;7.30;;;6.10;97.20;;;;;;1694019;29;20213;-70
2022/04/05 06:22:25;;;;;;;8.25;7.53;;;6.10;97.20;;;;;;1694124;29;20667;-71
2022/04/05 06:23:17;;;;;;;8.10;7.40;;;6.10;97.20;;;;;;1694966;29;20678;-70
2022/04/05 06:24:08;;;;;;;8.70;7.80;;;6.10;97.20;;;;;;1694016;29;20244;-71
2022/04/05 06:24:59;;;;;;;8.80;7.90;;;6.10;97.20;;;;;;1694016;29;20203;-70
2022/04/05 06:25:51;;;;;;;9.35;8.25;;;6.10;97.20;;;;;;1694999;29;20468;-70
2022/04/05 06:26:42;;;;;;;8.70;7.90;;;6.10;97.20;;;;;;1693912;29;20227;-71
2022/04/05 06:27:33;;;;;;;8.00;7.30;;;6.10;97.20;;;;;;1693954;29;20207;-70
2022/04/05 06:28:25;;;;;;;7.88;7.18;;;6.10;97.20;;;;;;1693734;29;20216;-70
2022/04/05 06:29:16;;;;;;;8.48;7.78;;;6.10;97.20;;;;;;1693854;29;20234;-71
2022/04/05 06:30:09;;;;;;;9.77;7.80;;;6.10;97.20;;;;;;1693982;29;20208;-71
2022/04/05 06:31:00;;;;;;;8.40;7.70;;;6.10;97.20;;;;;;1694044;29;20215;-70
2022/04/05 06:31:52;;;;;;;8.93;7.97;;;6.10;97.20;;;;;;1694093;29;20200;-70
2022/04/05 06:32:43;;;;;;;9.00;8.07;;;6.20;97.20;;;;;;1693920;29;20212;-70
2022/04/05 06:33:36;;;;;;;8.38;7.57;;;6.20;97.20;;;;;;1693972;29;20688;-71
2022/04/05 06:34:27;;;;;;;8.40;7.60;;;6.20;97.20;;;;;;1693982;29;20215;-70
2022/04/05 06:35:19;;;;;;;9.27;7.40;;;6.20;97.20;;;;;;1693915;29;20205;-70
2022/04/05 06:36:09;;;;;;;8.50;7.75;;;6.20;97.20;;;;;;1693855;29;20823;-71
2022/04/05 06:37:01;;;;;;;7.97;7.30;;;6.20;97.20;;;;;;1693997;29;20622;-70
2022/04/05 06:37:53;;;;;;;8.52;7.68;;;6.20;97.20;;;;;;1693952;29;20697;-70
2022/04/05 06:38:44;;;;;;;8.23;7.43;;;6.20;97.20;;;;;;1693694;29;20218;-71
2022/04/05 06:39:35;;;;;;;8.05;7.35;;;6.20;97.20;;;;;;1695111;29;20215;-70
2022/04/05 06:40:27;;;;;;;7.80;7.10;;;6.20;97.20;;;;;;1700566;29;20218;-70
2022/04/05 06:41:18;;;;;;;8.43;7.60;;;6.20;97.20;;;;;;1700447;29;20256;-70
2022/04/05 06:42:09;;;;;;;8.80;7.50;;;6.20;97.20;;;;;;1700537;29;20203;-70
2022/04/05 06:43:00;;;;;;;7.95;7.25;;;6.20;97.20;;;;;;1700531;29;20230;-71
2022/04/05 06:43:52;;;;;;;8.10;7.40;;;6.20;97.20;;;;;;1700482;29;20210;-70
2022/04/05 06:44:43;;;;;;;9.13;8.32;;;6.30;97.20;;;;;;1700466;29;20490;-71
2022/04/05 06:45:35;;;;;;;8.60;7.80;;;6.30;97.20;;;;;;1695601;29;20200;-70
2022/04/05 06:46:26;;;;;;;8.90;8.02;;;6.30;97.20;;;;;;1693864;29;20224;-70
2022/04/05 06:47:17;;;;;;;8.33;7.53;;;6.30;97.20;;;;;;1693936;29;20233;-70
2022/04/05 06:48:09;;;;;;;8.15;7.28;;;6.30;97.20;;;;;;1693655;29;20244;-70
2022/04/05 06:49:03;;;;;;;8.93;8.05;;;6.40;97.20;;;;;;1693985;29;20200;-70
2022/04/05 06:49:54;;;;;;;8.07;7.38;;;6.40;97.20;;;;;;1693868;29;20255;-70
2022/04/05 06:50:46;;;;;;;8.37;7.57;;;6.40;97.20;;;;;;1693903;29;20199;-70
2022/04/05 06:51:37;;;;;;;8.30;7.50;;;6.40;97.20;;;;;;1693875;29;20218;-70
2022/04/05 06:52:29;;;;;;;8.10;6.83;;;6.40;97.20;;;;;;1693963;29;20283;-70
2022/04/05 06:53:20;;;;;;;7.32;6.60;;;6.40;97.20;;;;;;1693900;29;20582;-70
2022/04/05 06:54:11;;;;;;;7.43;6.73;;;6.40;97.20;;;;;;1693949;29;20561;-71
2022/04/05 06:55:03;;;;;;;7.82;7.05;;;6.40;97.20;;;;;;1693973;29;20632;-70
2022/04/05 06:55:55;;;;;;;8.60;7.80;;;6.40;97.20;;;;;;1693894;29;20204;-70
2022/04/05 06:56:46;;;;;;;8.20;7.40;;;6.40;97.20;;;;;;1693917;29;20255;-70
2022/04/05 06:57:38;;;;;;;8.20;7.40;;;6.40;97.20;;;;;;1693911;29;20200;-71
2022/04/05 06:58:29;;;;;;;7.72;6.82;;;6.40;97.20;;;;;;1693603;29;20212;-70
2022/04/05 06:59:20;;;;;;;8.30;7.60;;;6.40;97.20;;;;;;1694757;29;20687;-71
2022/04/05 07:00:14;;;;;;;8.77;7.57;;;6.40;97.20;;;;;;1701153;29;20706;-70
2022/04/05 07:01:05;;;;;;;8.25;7.47;;;6.40;97.20;;;;;;1701768;29;20265;-71
2022/04/05 07:01:57;;;;;;;7.80;7.00;;;6.40;97.20;;;;;;1701709;29;20203;-70
2022/04/05 07:02:48;;;;;;;7.13;6.53;;;6.40;97.20;;;;;;1701718;29;20302;-70
2022/04/05 07:03:40;;;;;;;7.95;7.25;;;6.40;97.20;;;;;;1701683;29;20615;-70
2022/04/05 07:04:32;;;;;;;7.18;6.57;;;6.40;97.20;;;;;;1701643;29;20218;-70
2022/04/05 07:05:24;;;;;;;8.02;7.32;;;6.40;97.20;;;;;;1701724;29;20622;-70
2022/04/05 07:06:15;;;;;;;7.43;6.72;;;6.50;97.20;;;;;;1701578;29;20218;-70
2022/04/05 07:07:06;;;;;;;8.23;7.50;;;6.50;97.20;;;;;;1701634;29;20286;-70
2022/04/05 07:07:57;;;;;;;8.80;7.40;;;6.50;97.20;;;;;;1701737;29;20235;-70
2022/04/05 07:08:50;;;;;;;8.57;7.77;;;6.50;97.20;;;;;;1701330;29;20213;-70
2022/04/05 07:09:41;;;;;;;8.02;7.32;;;6.50;97.20;;;;;;1701506;29;20238;-70
2022/04/05 07:10:33;;;;;;;7.87;7.20;;;6.50;97.20;;;;;;1701633;29;20203;-70
2022/04/05 07:11:23;;;;;;;9.52;6.65;;;6.50;97.20;;;;;;1701666;29;20449;-70
2022/04/05 07:12:15;;;;;;;7.70;6.93;;;6.60;97.20;;;;;;1701648;29;20205;-70
2022/04/05 07:13:07;;;;;;;8.05;6.57;;;6.60;97.20;;;;;;1702032;29;20207;-71
2022/04/05 07:13:59;;;;;;;9.95;7.75;;;6.60;97.20;;;;;;1700094;29;20210;-70
2022/04/05 07:14:51;;;;;;;7.47;6.88;;;6.60;97.20;;;;;;1695037;29;20204;-70
2022/04/05 07:15:42;;;;;;;7.30;6.57;;;6.70;97.20;;;;;;1695246;29;20601;-70
2022/04/05 07:16:33;;;;;;;9.20;8.30;;;6.70;97.20;;;;;;1694947;29;20244;-70
2022/04/05 07:17:25;;;;;;;8.47;7.57;;;6.70;97.20;;;;;;1695119;29;20207;-70
2022/04/05 07:18:17;;;;;;;7.97;7.22;;;6.70;97.20;;;;;;1694761;29;20271;-70
2022/04/05 07:19:08;;;;;;;8.82;7.32;;;6.70;97.20;;;;;;1695096;29;20632;-70
2022/04/05 07:20:01;;;;;;;8.83;8.03;;;6.80;97.20;;;;;;1694935;29;20223;-70
2022/04/05 07:20:53;;;;;;;7.78;7.05;;;6.80;97.20;;;;;;1695162;29;20682;-71
2022/04/05 07:21:43;;;;;;;10.48;7.68;;;6.80;97.20;;;;;;1695045;29;20254;-70
2022/04/05 07:22:35;;;;;;;7.70;7.00;;;6.80;97.20;;;;;;1695042;29;20207;-71
2022/04/05 07:23:26;;;;;;;6.97;6.38;;;6.80;97.20;;;;;;1695173;29;20212;-70
2022/04/05 07:24:18;;;;;;;7.97;7.17;;;6.90;97.20;;;;;;1695055;29;20288;-70
2022/04/05 07:25:09;;;;;;;8.05;7.25;;;6.90;97.20;;;;;;1695036;29;20290;-70
2022/04/05 07:26:01;;;;;;;8.60;7.78;;;6.90;97.20;;;;;;1694343;29;20210;-70
2022/04/05 07:26:52;;;;;;;8.13;7.22;;;6.90;97.20;;;;;;1700706;29;20264;-71
2022/04/05 07:27:45;;;;;;;7.30;6.33;;;6.90;97.20;;;;;;1701300;29;20207;-70
2022/04/05 07:28:35;;;;;;;8.27;7.53;;;6.90;97.20;;;;;;1700233;29;20458;-71
2022/04/05 07:29:27;;;;;;;7.60;6.90;;;7.00;97.20;;;;;;1700230;29;20199;-70
2022/04/05 07:30:19;;;;;;;7.60;6.80;;;7.00;97.20;;;;;;1701665;29;20202;-70
2022/04/05 07:31:10;;;;;;;7.38;6.50;;;7.00;97.20;;;;;;1701025;29;20234;-70
2022/04/05 07:32:01;;;;;;;8.18;7.38;;;7.10;97.20;;;;;;1701558;29;20581;-71
2022/04/05 07:32:53;;;;;;;8.50;6.87;;;7.10;97.20;;;;;;1701595;29;20222;-70
2022/04/05 07:33:44;;;;;;;7.80;7.00;;;7.10;97.20;;;;;;1701520;29;20236;-71
2022/04/05 07:34:35;;;;;;;7.50;6.80;;;7.20;97.20;;;;;;1701602;29;20207;-71
2022/04/05 07:35:28;;;;;;;7.55;6.88;;;7.20;97.20;;;;;;1701579;29;20489;-70
2022/04/05 07:36:19;;;;;;;7.20;6.50;;;7.20;97.20;;;;;;1701505;29;20238;-70
2022/04/05 07:37:11;;;;;;;7.80;7.00;;;7.20;97.20;;;;;;1701451;29;20211;-70
2022/04/05 07:38:03;;;;;;;8.00;7.20;;;7.20;97.20;;;;;;1701301;29;20204;-71
2022/04/05 07:38:54;;;;;;;8.00;7.20;;;7.20;97.20;;;;;;1701498;29;20641;-70
2022/04/05 07:39:45;;;;;;;8.20;6.80;;;7.20;97.20;;;;;;1701442;29;20203;-70
2022/04/05 07:40:49;;;;;;;7.90;7.10;;;7.20;97.20;;;;;;1701421;29;20231;-70
2022/04/05 07:41:40;;;;;;;7.57;6.60;;;7.30;97.20;;;;;;1701561;29;20207;-70
2022/04/05 07:42:32;;;;;;;8.47;6.20;;;7.30;97.20;;;;;;1701512;29;20207;-70
2022/04/05 07:43:25;;;;;;;7.82;6.93;;;7.30;97.20;;;;;;1701602;29;20247;-70
2022/04/05 07:44:16;;;;;;;7.57;6.88;;;7.30;97.20;;;;;;1701421;29;20704;-70
2022/04/05 07:45:09;;;;;;;8.82;6.85;;;7.40;97.20;;;;;;1701550;29;20219;-70
2022/04/05 07:46:01;;;;;;;7.65;6.78;;;7.40;97.20;;;;;;1701473;29;20195;-71
2022/04/05 07:46:52;;;;;;;7.45;6.75;;;7.40;97.20;;;;;;1701701;29;20214;-70
2022/04/05 07:47:44;;;;;;;8.23;6.15;;;7.40;97.20;;;;;;1699843;29;20203;-70
2022/04/05 07:48:35;;;;;;;8.80;7.05;;;7.50;97.20;;;;;;1701250;29;20255;-70
2022/04/05 07:49:26;;;;;;;8.03;7.07;;;7.50;97.20;;;;;;1699630;29;20203;-72
2022/04/05 07:50:17;;;;;;;7.03;6.00;;;7.50;97.20;;;;;;1694956;29;20629;-70
2022/04/05 07:51:10;;;;;;;7.83;7.00;;;7.50;97.20;;;;;;1694899;29;20226;-70
2022/04/05 07:52:01;;;;;;;6.93;6.30;;;7.50;97.20;;;;;;1694793;29;20203;-71
2022/04/05 07:52:53;;;;;;;7.20;6.50;;;7.50;97.20;;;;;;1694872;29;20200;-71
2022/04/05 07:53:44;;;;;;;7.70;6.97;;;7.50;97.20;;;;;;1694772;29;20294;-71
2022/04/05 07:54:36;;;;;;;7.60;6.83;;;7.60;97.20;;;;;;1694898;29;20207;-70
2022/04/05 07:55:27;;;;;;;6.97;6.35;;;7.60;97.20;;;;;;1694868;29;20456;-70
2022/04/05 07:56:19;;;;;;;6.90;6.20;;;7.60;97.20;;;;;;1694749;29;20234;-70
2022/04/05 07:57:10;;;;;;;7.85;6.80;;;7.70;97.20;;;;;;1694866;29;20455;-70
2022/04/05 07:58:02;;;;;;;9.93;7.17;;;7.70;97.20;;;;;;1694680;29;20200;-72
2022/04/05 07:58:53;;;;;;;7.60;6.85;;;7.70;97.20;;;;;;1694648;29;20463;-69
2022/04/05 07:59:45;;;;;;;7.40;6.80;;;7.80;97.20;;;;;;1694893;29;20200;-70
2022/04/05 08:00:36;;;;;;;7.35;6.65;;;7.80;97.20;;;;;;1694695;29;20487;-71
2022/04/05 08:01:29;;;;;;;7.35;6.65;;;7.80;97.20;;;;;;1694926;29;20655;-70
2022/04/05 08:02:19;;;;;;;6.53;5.88;;;7.80;97.20;;;;;;1694871;29;20217;-70
2022/04/05 08:03:11;;;;;;;7.70;6.90;;;7.80;97.20;;;;;;1694827;29;20295;-70
2022/04/05 08:04:02;;;;;;;6.47;5.88;;;7.90;97.20;;;;;;1694935;29;20215;-70
2022/04/05 08:04:54;;;;;;;7.40;6.47;;;7.90;97.20;;;;;;1697995;29;20195;-70
2022/04/05 08:05:44;;;;;;;9.05;7.18;;;7.90;97.20;;;;;;1701495;29;20637;-70
2022/04/05 08:06:37;;;;;;;8.23;6.83;;;8.00;97.20;;;;;;1701238;29;20246;-71
2022/04/05 08:07:28;;;;;;;6.70;6.10;;;8.00;97.20;;;;;;1701418;29;20207;-70
2022/04/05 08:08:20;;;;;;;8.03;7.27;;;8.10;97.20;;;;;;1700997;29;20207;-70
2022/04/05 08:09:11;;;;;;;7.15;6.55;;;8.10;97.20;;;;;;1701431;29;20208;-70
2022/04/05 08:10:03;;;;;;;6.40;5.80;;;8.20;97.20;;;;;;1700928;29;20223;-71
2022/04/05 08:10:54;;;;;;;7.30;6.60;;;8.20;97.20;;;;;;1701344;29;20452;-71
2022/04/05 08:11:46;;;;;;;7.30;6.60;;;8.20;97.20;;;;;;1701415;29;20274;-71
2022/04/05 08:12:38;;;;;;;6.53;5.93;;;8.20;97.20;;;;;;1701275;29;20245;-70
2022/04/05 08:13:30;;;;;;;7.97;6.93;;;8.20;97.20;;;;;;1701350;29;20199;-70
2022/04/05 08:14:27;;;;;;;6.80;6.10;;;8.20;97.20;;;;;;1701332;29;20689;-70
2022/04/05 08:15:21;;;;;;;7.35;6.65;;;8.20;97.20;;;;;;1701305;29;20694;-70
2022/04/05 08:16:13;;;;;;;6.57;5.97;;;8.10;97.20;;;;;;1700518;29;20207;-70
2022/04/05 08:17:04;;;;;;;7.13;6.50;;;8.10;97.20;;;;;;1701409;29;20606;-70
2022/04/05 08:17:57;;;;;;;7.60;6.30;;;8.10;97.20;;;;;;1700937;29;20598;-70
2022/04/05 08:18:48;;;;;;;6.38;5.78;;;8.20;97.20;;;;;;1695722;29;20671;-70
2022/04/05 08:19:40;;;;;;;7.60;6.40;;;8.20;97.20;;;;;;1701102;29;20665;-70
2022/04/05 08:20:33;;;;;;;6.95;6.00;;;8.20;97.20;;;;;;1701083;29;20203;-71
2022/04/05 08:21:25;;;;;;;6.63;5.93;;;8.20;97.20;;;;;;1701085;29;20203;-70
2022/04/05 08:22:17;;;;;;;7.45;6.30;;;8.20;97.20;;;;;;1700564;29;20203;-70
2022/04/05 08:23:09;;;;;;;7.03;6.05;;;8.20;97.20;;;;;;1701262;29;20245;-70
2022/04/05 08:24:01;;;;;;;6.63;6.03;;;8.20;97.20;;;;;;1701267;29;20204;-70
2022/04/05 08:24:52;;;;;;;6.47;5.85;;;8.30;97.20;;;;;;1701119;29;20270;-70
2022/04/05 08:25:44;;;;;;;7.27;6.60;;;8.30;97.20;;;;;;1701175;29;20251;-71
2022/04/05 08:26:34;;;;;;;7.13;6.38;;;8.30;97.20;;;;;;1700757;29;20463;-70
2022/04/05 08:27:26;;;;;;;7.93;6.87;;;8.40;97.20;;;;;;1700993;29;20188;-69
2022/04/05 08:28:19;;;;;;;7.35;6.65;;;8.40;97.20;;;;;;1700659;29;20214;-70
2022/04/05 08:29:10;;;;;;;7.53;6.78;;;8.40;97.20;;;;;;1701150;29;20208;-70
2022/04/05 08:30:02;;;;;;;6.50;5.83;;;8.40;97.20;;;;;;1701203;29;20199;-70
2022/04/05 08:30:53;;;;;;;7.80;6.13;;;8.50;97.20;;;;;;1700965;29;20449;-71
2022/04/05 08:31:45;;;;;;;8.43;6.17;;;8.50;97.20;;;;;;1700988;29;20195;-69
2022/04/05 08:32:37;;;;;;;7.25;6.50;;;8.50;97.20;;;;;;1700747;29;20203;-70
2022/04/05 08:33:29;;;;;;;6.57;5.63;;;8.50;97.20;;;;;;1698674;29;20206;-70
2022/04/05 08:34:20;;;;;;;8.40;6.40;;;8.50;97.20;;;;;;1700943;29;20199;-69
2022/04/05 08:35:13;;;;;;;7.03;6.13;;;8.50;97.20;;;;;;1701121;29;20265;-69
2022/04/05 08:36:05;;;;;;;6.40;5.80;;;8.40;97.20;;;;;;1700873;29;20231;-70
2022/04/05 08:36:57;;;;;;;7.22;6.38;;;8.40;97.20;;;;;;1700972;29;20301;-70
2022/04/05 08:37:54;;;;;;;7.63;6.70;;;8.40;97.20;;;;;;1698656;29;20199;-70
2022/04/05 08:38:44;;;;;;;6.40;5.75;;;8.40;97.20;;;;;;1700787;29;20210;-70
2022/04/05 08:39:36;;;;;;;8.90;6.13;;;8.40;97.20;;;;;;1700916;29;20205;-71
2022/04/05 08:40:27;;;;;;;6.53;5.93;;;8.40;97.20;;;;;;1701042;29;20858;-70
2022/04/05 08:41:21;;;;;;;6.88;6.10;;;8.40;97.20;;;;;;1700922;29;20211;-69
2022/04/05 08:42:13;;;;;;;7.07;6.25;;;8.40;97.20;;;;;;1701117;29;20658;-69
2022/04/05 08:43:05;;;;;;;7.75;6.70;;;8.40;97.20;;;;;;1701048;29;20250;-69
2022/04/05 08:43:57;;;;;;;6.93;6.30;;;8.40;97.20;;;;;;1701213;29;20663;-70
2022/04/05 08:44:50;;;;;;;6.70;5.88;;;8.50;97.20;;;;;;1701156;29;20206;-71
2022/04/05 08:45:46;;;;;;;6.97;6.20;;;8.60;97.20;;;;;;1701120;29;20199;-70
2022/04/05 08:46:38;;;;;;;8.60;6.78;;;8.60;97.20;;;;;;1700566;29;20254;-69
2022/04/05 08:47:31;;;;;;;6.97;6.38;;;8.60;97.20;;;;;;1701015;29;20237;-70
2022/04/05 08:48:26;;;;;;;9.10;6.05;;;8.70;97.20;;;;;;1700778;29;20231;-71
2022/04/05 08:49:19;;;;;;;8.85;6.60;;;8.70;97.20;;;;;;1700965;29;20223;-70
2022/04/05 08:50:10;;;;;;;7.97;6.45;;;8.70;97.20;;;;;;1701133;29;20214;-70
2022/04/05 08:51:02;;;;;;;6.20;5.60;;;8.70;97.20;;;;;;1701379;29;20199;-70
2022/04/05 08:51:53;;;;;;;8.00;6.05;;;8.70;97.20;;;;;;1701142;29;20203;-70
2022/04/05 08:52:46;;;;;;;8.40;6.53;;;8.80;97.20;;;;;;1701193;29;20199;-71
2022/04/05 08:53:38;;;;;;;7.65;5.72;;;8.80;97.20;;;;;;1700967;29;20691;-70
2022/04/05 08:54:31;;;;;;;7.10;6.40;;;8.80;97.20;;;;;;1701059;29;20262;-70
2022/04/05 08:55:23;;;;;;;6.88;6.18;;;8.80;97.20;;;;;;1701087;29;20207;-70
2022/04/05 08:56:15;;;;;;;6.95;6.25;;;8.90;97.20;;;;;;1700988;29;20238;-69
2022/04/05 08:57:06;;;;;;;6.80;6.00;;;8.90;97.20;;;;;;1701177;29;20728;-70
2022/04/05 08:57:58;;;;;;;8.15;6.28;;;9.00;97.20;;;;;;1701080;29;20203;-69
2022/04/05 08:58:49;;;;;;;7.18;5.57;;;9.00;97.20;;;;;;1700662;29;20652;-70
2022/04/05 08:59:41;;;;;;;6.90;6.20;;;9.00;97.20;;;;;;1700992;29;20274;-71
2022/04/05 09:00:32;;;;;;;7.95;6.22;;;9.00;97.20;;;;;;1700969;29;20741;-70
2022/04/05 09:01:23;;;;;;;7.20;6.50;;;9.00;97.20;;;;;;1701021;29;20286;-70
2022/04/05 09:02:24;;;;;;;7.25;6.55;;;9.00;97.20;;;;;;1700995;29;20300;-70
2022/04/05 09:03:15;;;;;;;7.00;6.40;;;9.00;97.20;;;;;;1699381;29;20236;-70
2022/04/05 09:04:06;;;;;;;7.68;6.57;;;9.00;97.20;;;;;;1701015;29;20231;-69
2022/04/05 09:04:58;;;;;;;6.78;6.15;;;9.10;97.20;;;;;;1700838;29;20717;-70
2022/04/05 09:05:52;;;;;;;7.95;6.40;;;9.20;97.20;;;;;;1700815;29;20211;-70
2022/04/05 09:06:43;;;;;;;7.60;6.15;;;9.20;97.20;;;;;;1700825;29;20215;-70
2022/04/05 09:07:35;;;;;;;5.93;5.43;;;9.20;97.20;;;;;;1700535;29;20250;-69
2022/04/05 09:08:28;;;;;;;7.18;5.85;;;9.20;97.20;;;;;;1700613;29;20199;-70
2022/04/05 09:09:28;;;;;;;8.60;6.85;;;9.20;97.20;;;;;;1698295;29;20200;-70
2022/04/05 09:10:19;;;;;;;6.93;6.20;;;9.20;97.20;;;;;;1695665;29;20208;-70
2022/04/05 09:11:13;;;;;;;6.60;6.00;;;9.20;97.20;;;;;;1700863;29;20600;-70
2022/04/05 09:12:16;;;;;;;7.70;6.85;;;9.20;97.20;;;;;;1700976;29;20286;-70
2022/04/05 09:13:12;;;;;;;6.90;5.63;;;9.30;97.20;;;;;;1699443;29;20703;-70
2022/04/05 09:14:04;;;;;;;7.03;6.03;;;9.30;97.20;;;;;;1698803;29;20219;-71
2022/04/05 09:14:55;;;;;;;8.73;6.60;;;9.40;97.20;;;;;;1700755;29;20201;-70
2022/04/05 09:15:50;;;;;;;7.93;6.45;;;9.50;97.20;;;;;;1701049;29;20230;-72
2022/04/05 09:16:42;;;;;;;8.43;6.35;;;9.50;97.20;;;;;;1698484;29;20230;-70
2022/04/05 09:17:39;;;;;;;7.25;6.32;;;9.60;97.20;;;;;;1700833;29;20199;-70
2022/04/05 09:18:36;;;;;;;7.05;6.35;;;9.60;97.20;;;;;;1700642;29;20195;-71
2022/04/05 09:19:35;;;;;;;7.32;5.85;;;9.60;97.20;;;;;;1700400;29;20577;-71
2022/04/05 09:20:27;;;;;;;7.13;6.45;;;9.70;97.20;;;;;;1699570;29;20401;-70
2022/04/05 09:21:18;;;;;;;6.40;5.55;;;9.70;97.20;;;;;;1700378;29;20219;-70
2022/04/05 09:22:10;;;;;;;6.10;5.50;;;9.70;97.20;;;;;;1700183;29;20226;-72
2022/04/05 09:23:03;;;;;;;7.32;6.05;;;9.60;97.20;;;;;;1700914;29;20215;-70
2022/04/05 09:24:07;;;;;;;6.80;6.10;;;9.60;97.20;;;;;;1700669;29;20714;-70
2022/04/05 09:25:03;;;;;;;6.65;6.00;;;9.50;97.20;;;;;;1699751;29;20656;-68
2022/04/05 09:25:57;;;;;;;6.60;5.97;;;9.50;97.20;;;;;;1700169;29;20586;-69
2022/04/05 09:26:48;;;;;;;6.45;5.50;;;9.50;97.20;;;;;;1698431;29;20214;-69
2022/04/05 09:27:47;;;;;;;7.90;6.20;;;9.50;97.20;;;;;;1700779;29;20202;-69
2022/04/05 09:28:41;;;;;;;6.80;6.20;;;9.50;97.20;;;;;;1697425;29;20217;-69
2022/04/05 09:29:39;;;;;;;7.00;6.40;;;9.50;97.20;;;;;;1700248;29;20207;-68
2022/04/05 09:30:32;;;;;;;6.50;5.75;;;9.40;97.20;;;;;;1700588;29;20207;-69
2022/04/05 09:31:24;;;;;;;7.10;6.03;;;9.40;97.20;;;;;;1699152;29;20241;-69
2022/04/05 09:32:33;;;;;;;6.47;5.88;;;9.40;97.20;;;;;;1698888;29;20199;-69
2022/04/05 09:33:25;;;;;;;6.40;5.80;;;9.30;97.20;;;;;;1699965;29;20234;-69
2022/04/05 09:34:19;;;;;;;5.88;5.38;;;9.30;97.20;;;;;;1700653;29;20211;-69
2022/04/05 09:35:11;;;;;;;6.88;6.13;;;9.30;97.20;;;;;;1700231;29;20254;-69